createdAt,value
2022-09-11T00:01:29.849Z,97760.97
2022-09-11T00:03:58.419Z,97754.81
2022-09-11T00:06:30.214Z,97767.16
2022-09-11T00:09:01.329Z,97765.81
2022-09-11T00:11:31.681Z,97767.84
2022-09-11T00:14:00.558Z,97762.94
2022-09-11T00:16:32.931Z,97764.91
2022-09-11T00:19:03.033Z,97761.41
2022-09-11T00:21:31.443Z,97774.22
2022-09-11T00:24:00.087Z,97769.22
2022-09-11T00:26:28.654Z,97778.78
2022-09-11T00:28:57.480Z,97770.00
2022-09-11T00:31:28.435Z,97777.03
2022-09-11T00:33:58.347Z,97768.31
2022-09-11T00:36:29.104Z,97775.69
2022-09-11T00:38:58.084Z,97776.00
2022-09-11T00:41:30.964Z,97775.03
2022-09-11T00:44:02.391Z,97777.47
2022-09-11T00:46:35.161Z,97778.81
2022-09-11T00:49:16.887Z,97775.94
2022-09-11T00:51:44.931Z,97783.34
2022-09-11T00:54:14.819Z,97774.41
2022-09-11T00:56:44.024Z,97781.31
2022-09-11T00:59:12.885Z,97785.88
2022-09-11T01:01:42.086Z,97789.22
2022-09-11T01:04:12.083Z,97773.53
2022-09-11T01:06:41.037Z,97779.47
2022-09-11T01:09:09.394Z,97779.59
2022-09-11T01:11:46.170Z,97782.56
2022-09-11T01:14:25.388Z,97772.63
2022-09-11T01:16:55.875Z,97772.78
2022-09-11T01:19:38.456Z,97770.56
2022-09-11T01:22:22.619Z,97771.53
2022-09-11T01:24:57.550Z,97771.63
2022-09-11T01:27:42.065Z,97770.84
2022-09-11T01:30:12.793Z,97770.56
2022-09-11T01:32:46.766Z,97763.28
2022-09-11T01:35:19.160Z,97760.66
2022-09-11T01:37:55.178Z,97759.53
2022-09-11T01:40:26.439Z,97755.94
2022-09-11T01:43:00.962Z,97757.22
2022-09-11T01:45:31.381Z,97754.59
2022-09-11T01:48:00.204Z,97750.47
2022-09-11T01:50:30.396Z,97742.97
2022-09-11T01:53:00.704Z,97740.28
2022-09-11T01:55:32.144Z,97746.38
2022-09-11T01:58:06.793Z,97749.31
2022-09-11T02:00:36.905Z,97742.47
2022-09-11T02:03:09.343Z,97753.81
2022-09-11T02:05:41.861Z,97746.91
2022-09-11T02:08:14.400Z,97750.69
2022-09-11T02:10:47.170Z,97747.25
2022-09-11T02:13:20.381Z,97751.13
2022-09-11T02:15:52.264Z,97746.16
2022-09-11T02:18:27.080Z,97754.44
2022-09-11T02:20:56.029Z,97742.56
2022-09-11T02:23:24.464Z,97753.38
2022-09-11T02:25:52.635Z,97748.91
2022-09-11T02:28:22.197Z,97754.75
2022-09-11T02:30:50.722Z,97749.34
2022-09-11T02:33:32.964Z,97741.97
2022-09-11T02:36:23.144Z,97741.44
2022-09-11T02:38:59.483Z,97740.56
2022-09-11T02:41:32.454Z,97737.69
2022-09-11T02:44:09.230Z,97740.09
2022-09-11T02:47:05.754Z,97733.19
2022-09-11T02:49:44.384Z,97732.31
2022-09-11T02:52:20.945Z,97736.25
2022-09-11T02:54:54.909Z,97730.97
2022-09-11T02:57:30.248Z,97735.09
2022-09-11T03:00:02.046Z,97737.25
2022-09-11T03:02:32.172Z,97736.97
2022-09-11T03:05:00.460Z,97728.59
2022-09-11T03:07:28.771Z,97734.22
2022-09-11T03:09:57.154Z,97730.19
2022-09-11T03:12:25.404Z,97729.16
2022-09-11T03:14:53.732Z,97733.06
2022-09-11T03:17:23.626Z,97722.91
2022-09-11T03:19:51.761Z,97722.78
2022-09-11T03:22:20.006Z,97731.66
2022-09-11T03:24:48.301Z,97719.19
2022-09-11T03:27:17.301Z,97726.03
2022-09-11T03:29:46.693Z,97726.03
2022-09-11T03:32:16.313Z,97731.22
2022-09-11T03:34:47.202Z,97733.03
2022-09-11T03:37:16.101Z,97736.09
2022-09-11T03:39:44.330Z,97730.38
2022-09-11T03:42:12.769Z,97726.44
2022-09-11T03:44:41.632Z,97726.88
2022-09-11T03:47:09.705Z,97723.56
2022-09-11T03:49:38.131Z,97719.81
2022-09-11T03:52:08.000Z,97721.63
2022-09-11T03:54:36.282Z,97730.69
2022-09-11T03:57:04.611Z,97727.47
2022-09-11T03:59:33.056Z,97731.03
2022-09-11T04:02:01.500Z,97725.25
2022-09-11T04:04:29.789Z,97727.44
2022-09-11T04:06:58.472Z,97724.38
2022-09-11T04:09:28.735Z,97725.06
2022-09-11T04:11:56.893Z,97725.13
2022-09-11T04:14:25.492Z,97727.56
2022-09-11T04:16:54.876Z,97733.59
2022-09-11T04:19:23.894Z,97734.25
2022-09-11T04:21:52.438Z,97736.75
2022-09-11T04:24:20.669Z,97740.41
2022-09-11T04:26:50.255Z,97731.69
2022-09-11T04:29:18.910Z,97729.03
2022-09-11T04:31:47.073Z,97736.47
2022-09-11T04:34:15.365Z,97738.97
2022-09-11T04:36:43.867Z,97739.53
2022-09-11T04:39:12.590Z,97739.13
2022-09-11T04:41:40.736Z,97741.63
2022-09-11T04:44:10.669Z,97742.41
2022-09-11T04:46:39.129Z,97740.63
2022-09-11T04:49:08.324Z,97742.97
2022-09-11T04:51:38.377Z,97734.78
2022-09-11T04:54:07.930Z,97737.72
2022-09-11T04:56:38.751Z,97741.59
2022-09-11T04:59:13.312Z,97741.78
2022-09-11T05:01:44.273Z,97737.00
2022-09-11T05:04:13.115Z,97733.34
2022-09-11T05:06:42.571Z,97741.97
2022-09-11T05:09:12.106Z,97734.34
2022-09-11T05:11:40.847Z,97736.63
2022-09-11T05:14:09.143Z,97737.13
2022-09-11T05:16:37.993Z,97737.94
2022-09-11T05:19:08.000Z,97737.13
2022-09-11T05:21:36.757Z,97741.97
2022-09-11T05:24:05.782Z,97739.19
2022-09-11T05:26:36.598Z,97738.44
2022-09-11T05:29:07.447Z,97735.47
2022-09-11T05:31:37.358Z,97734.16
2022-09-11T05:34:07.496Z,97742.13
2022-09-11T05:36:36.044Z,97734.34
2022-09-11T05:39:05.169Z,97735.50
2022-09-11T05:41:33.591Z,97742.78
2022-09-11T05:44:01.875Z,97739.97
2022-09-11T05:46:30.263Z,97743.09
2022-09-11T05:48:59.423Z,97741.59
2022-09-11T05:51:28.955Z,97745.50
2022-09-11T05:53:58.249Z,97747.78
2022-09-11T05:56:29.977Z,97736.63
2022-09-11T05:58:58.913Z,97738.19
2022-09-11T06:01:28.973Z,97737.78
2022-09-11T06:03:58.195Z,97743.03
2022-09-11T06:06:28.134Z,97746.41
2022-09-11T06:08:56.243Z,97751.25
2022-09-11T06:11:24.566Z,97751.41
2022-09-11T06:13:53.292Z,97748.34
2022-09-11T06:16:23.129Z,97747.53
2022-09-11T06:18:52.244Z,97755.09
2022-09-11T06:21:22.172Z,97746.31
2022-09-11T06:23:53.644Z,97760.78
2022-09-11T06:26:23.513Z,97750.53
2022-09-11T06:28:51.990Z,97748.59
2022-09-11T06:31:22.332Z,97754.66
2022-09-11T06:33:51.564Z,97754.47
2022-09-11T06:36:21.286Z,97745.81
2022-09-11T06:38:55.779Z,97758.19
2022-09-11T06:41:25.277Z,97758.13
2022-09-11T06:43:53.963Z,97765.47
2022-09-11T06:46:24.214Z,97760.06
2022-09-11T06:48:53.583Z,97752.75
2022-09-11T06:51:23.047Z,97764.25
2022-09-11T06:53:56.332Z,97764.09
2022-09-11T06:56:25.434Z,97762.03
2022-09-11T06:58:53.578Z,97770.63
2022-09-11T07:01:22.896Z,97769.81
2022-09-11T07:03:53.101Z,97761.06
2022-09-11T07:06:22.837Z,97756.84
2022-09-11T07:08:52.504Z,97763.19
2022-09-11T07:11:22.627Z,97766.97
2022-09-11T07:13:50.769Z,97766.69
2022-09-11T07:16:19.061Z,97759.03
2022-09-11T07:18:48.585Z,97770.72
2022-09-11T07:21:18.564Z,97761.69
2022-09-11T07:23:48.881Z,97764.63
2022-09-11T07:26:18.554Z,97767.41
2022-09-11T07:28:49.013Z,97763.00
2022-09-11T07:31:20.994Z,97769.28
2022-09-11T07:33:51.581Z,97763.19
2022-09-11T07:36:21.863Z,97769.34
2022-09-11T07:39:04.945Z,97774.72
2022-09-11T07:41:33.470Z,97771.41
2022-09-11T07:44:04.188Z,97760.91
2022-09-11T07:46:33.042Z,97763.06
2022-09-11T07:49:02.124Z,97772.19
2022-09-11T07:51:30.735Z,97777.44
2022-09-11T07:54:00.224Z,97781.03
2022-09-11T07:56:29.194Z,97773.41
2022-09-11T07:59:21.279Z,97776.38
2022-09-11T08:01:50.240Z,97777.78
2022-09-11T08:04:18.756Z,97780.84
2022-09-11T08:06:47.698Z,97780.09
2022-09-11T08:09:16.791Z,97779.84
2022-09-11T08:11:48.720Z,97784.44
2022-09-11T08:14:17.861Z,97792.66
2022-09-11T08:16:48.486Z,97791.31
2022-09-11T08:19:19.096Z,97789.06
2022-09-11T08:21:48.308Z,97787.19
2022-09-11T08:24:18.113Z,97788.84
2022-09-11T08:26:49.009Z,97791.13
2022-09-11T08:29:18.434Z,97795.22
2022-09-11T08:31:48.008Z,97795.03
2022-09-11T08:34:16.438Z,97797.41
2022-09-11T08:36:45.650Z,97794.13
2022-09-11T08:39:14.073Z,97798.16
2022-09-11T08:41:48.379Z,97796.75
2022-09-11T08:44:21.321Z,97796.91
2022-09-11T08:46:55.166Z,97789.47
2022-09-11T08:49:26.422Z,97794.41
2022-09-11T08:51:56.669Z,97796.78
2022-09-11T08:54:27.741Z,97804.09
2022-09-11T08:57:01.531Z,97797.19
2022-09-11T08:59:39.085Z,97798.00
2022-09-11T09:02:18.622Z,97798.84
2022-09-11T09:05:05.065Z,97797.09
2022-09-11T09:07:41.853Z,97796.50
2022-09-11T09:10:17.533Z,97798.47
2022-09-11T09:12:52.151Z,97798.06
2022-09-11T09:15:29.502Z,97797.28
2022-09-11T09:18:02.682Z,97796.50
2022-09-11T09:20:34.463Z,97799.94
2022-09-11T09:23:05.495Z,97802.50
2022-09-11T09:25:37.457Z,97800.94
2022-09-11T09:28:13.948Z,97798.22
2022-09-11T09:30:46.588Z,97798.47
2022-09-11T09:33:27.703Z,97799.66
2022-09-11T09:35:57.907Z,97800.25
2022-09-11T09:38:29.449Z,97800.41
2022-09-11T09:41:14.797Z,97801.66
2022-09-11T09:43:51.583Z,97813.66
2022-09-11T09:46:27.621Z,97794.13
2022-09-11T09:48:57.204Z,97800.66
2022-09-11T09:51:25.671Z,97799.56
2022-09-11T09:53:56.731Z,97798.47
2022-09-11T09:56:26.270Z,97804.97
2022-09-11T09:59:01.053Z,97795.56
2022-09-11T10:01:50.346Z,97800.13
2022-09-11T10:04:23.191Z,97804.91
2022-09-11T10:06:53.165Z,97808.00
2022-09-11T10:09:27.474Z,97806.63
2022-09-11T10:12:02.011Z,97794.69
2022-09-11T10:15:02.031Z,97807.66
2022-09-11T10:17:24.362Z,97803.31
2022-09-11T10:19:55.388Z,97810.97
2022-09-11T10:22:29.645Z,97807.75
2022-09-11T10:25:07.197Z,97818.13
2022-09-11T10:27:42.111Z,97812.13
2022-09-11T10:30:27.127Z,97806.13
2022-09-11T10:33:05.977Z,97810.06
2022-09-11T10:35:37.865Z,97810.38
2022-09-11T10:38:18.139Z,97806.81
2022-09-11T10:40:58.705Z,97809.22
2022-09-11T10:43:38.297Z,97802.41
2022-09-11T10:46:22.858Z,97795.28
2022-09-11T10:48:56.390Z,97797.28
2022-09-11T10:51:27.733Z,97797.72
2022-09-11T10:54:03.577Z,97804.09
2022-09-11T10:56:34.379Z,97801.13
2022-09-11T10:59:05.620Z,97802.00
2022-09-11T11:01:33.906Z,97797.09
2022-09-11T11:04:02.838Z,97798.84
2022-09-11T11:06:46.059Z,97787.16
2022-09-11T11:09:31.159Z,97796.59
2022-09-11T11:12:11.073Z,97790.47
2022-09-11T11:14:56.946Z,97799.56
2022-09-11T11:17:31.899Z,97799.72
2022-09-11T11:20:11.011Z,97801.56
2022-09-11T11:23:01.037Z,97795.25
2022-09-11T11:25:38.355Z,97796.56
2022-09-11T11:28:25.163Z,97790.84
2022-09-11T11:31:01.147Z,97797.81
2022-09-11T11:33:39.763Z,97796.59
2022-09-11T11:36:11.627Z,97780.44
2022-09-11T11:38:44.547Z,97788.72
2022-09-11T11:41:16.739Z,97792.88
2022-09-11T11:43:45.584Z,97790.78
2022-09-11T11:46:18.297Z,97794.69
2022-09-11T11:48:52.115Z,97795.41
2022-09-11T11:51:22.152Z,97794.28
2022-09-11T11:53:59.217Z,97788.28
2022-09-11T11:56:34.099Z,97790.72
2022-09-11T11:59:05.448Z,97800.00
2022-09-11T12:01:37.693Z,97798.38
2022-09-11T12:04:14.545Z,97791.88
2022-09-11T12:06:43.396Z,97795.88
2022-09-11T12:09:17.301Z,97790.22
2022-09-11T12:11:48.334Z,97795.06
2022-09-11T12:14:29.080Z,97790.81
2022-09-11T12:16:58.361Z,97781.59
2022-09-11T12:19:27.067Z,97793.00
2022-09-11T12:22:16.357Z,97792.69
2022-09-11T12:24:59.030Z,97794.16
2022-09-11T12:27:53.503Z,97786.16
2022-09-11T12:30:27.017Z,97787.50
2022-09-11T12:32:56.052Z,97773.94
2022-09-11T12:35:30.161Z,97777.09
2022-09-11T12:38:04.113Z,97775.03
2022-09-11T12:40:39.110Z,97776.22
2022-09-11T12:43:42.078Z,97771.81
2022-09-11T12:46:13.495Z,97782.41
2022-09-11T12:48:43.344Z,97770.34
2022-09-11T12:51:21.905Z,97774.63
2022-09-11T12:53:53.256Z,97767.34
2022-09-11T12:56:34.947Z,97777.63
2022-09-11T12:59:05.037Z,97774.66
2022-09-11T13:01:36.006Z,97778.16
2022-09-11T13:04:13.084Z,97779.25
2022-09-11T13:06:44.590Z,97777.63
2022-09-11T13:09:18.415Z,97778.72
2022-09-11T13:11:49.918Z,97771.97
2022-09-11T13:14:46.066Z,97774.88
2022-09-11T13:17:25.959Z,97775.94
2022-09-11T13:19:55.668Z,97775.28
2022-09-11T13:22:31.223Z,97775.09
2022-09-11T13:25:07.266Z,97774.41
2022-09-11T13:27:40.150Z,97781.84
2022-09-11T13:30:09.502Z,97782.50
2022-09-11T13:32:38.138Z,97773.38
2022-09-11T13:35:11.156Z,97785.09
2022-09-11T13:37:41.753Z,97784.00
2022-09-11T13:40:19.521Z,97778.69
2022-09-11T13:42:50.149Z,97773.19
2022-09-11T13:45:20.540Z,97782.97
2022-09-11T13:47:49.112Z,97783.47
2022-09-11T13:50:20.956Z,97788.25
2022-09-11T13:52:49.384Z,97786.06
2022-09-11T13:55:20.109Z,97796.03
2022-09-11T13:57:54.702Z,97773.88
2022-09-11T14:00:40.774Z,97772.19
2022-09-11T14:03:18.217Z,97774.91
2022-09-11T14:05:51.581Z,97774.38
2022-09-11T14:08:27.337Z,97769.50
2022-09-11T14:10:59.437Z,97765.84
2022-09-11T14:13:33.293Z,97761.91
2022-09-11T14:16:04.620Z,97766.38
2022-09-11T14:18:33.449Z,97772.81
2022-09-11T14:21:04.222Z,97773.28
2022-09-11T14:23:32.789Z,97775.84
2022-09-11T14:26:09.116Z,97775.66
2022-09-11T14:29:10.464Z,97778.44
2022-09-11T14:31:40.916Z,97774.91
2022-09-11T14:34:13.796Z,97770.13
2022-09-11T14:36:45.180Z,97774.59
2022-09-11T14:39:23.891Z,97777.72
2022-09-11T14:41:52.179Z,97793.63
2022-09-11T14:44:22.276Z,97799.72
2022-09-11T14:46:50.563Z,97796.75
2022-09-11T14:49:18.665Z,97800.81
2022-09-11T14:51:53.400Z,97805.19
2022-09-11T14:54:22.852Z,97815.66
2022-09-11T14:56:51.184Z,97811.84
2022-09-11T14:59:20.977Z,97807.72
2022-09-11T15:01:52.464Z,97809.16
2022-09-11T15:04:23.176Z,97812.41
2022-09-11T15:06:54.190Z,97807.63
2022-09-11T15:09:23.166Z,97811.56
2022-09-11T15:11:52.426Z,97823.66
2022-09-11T15:14:44.695Z,97814.50
2022-09-11T15:17:12.770Z,97819.53
2022-09-11T15:19:41.076Z,97825.41
2022-09-11T15:22:09.842Z,97819.94
2022-09-11T15:24:38.203Z,97822.84
2022-09-11T15:27:06.518Z,97831.06
2022-09-11T15:29:36.348Z,97819.50
2022-09-11T15:32:06.354Z,97827.06
2022-09-11T15:34:34.794Z,97818.97
2022-09-11T15:37:03.212Z,97816.41
2022-09-11T15:39:32.227Z,97826.28
2022-09-11T15:42:01.984Z,97829.28
2022-09-11T15:44:30.702Z,97836.53
2022-09-11T15:47:00.618Z,97841.47
2022-09-11T15:49:29.572Z,97836.69
2022-09-11T15:51:59.105Z,97843.81
2022-09-11T15:54:28.090Z,97846.34
2022-09-11T15:56:57.394Z,97844.44
2022-09-11T15:59:25.758Z,97845.44
2022-09-11T16:01:54.262Z,97851.09
2022-09-11T16:04:28.321Z,97859.38
2022-09-11T16:06:56.859Z,97860.25
2022-09-11T16:09:27.061Z,97855.28
2022-09-11T16:11:56.188Z,97858.63
2022-09-11T16:14:25.707Z,97856.28
2022-09-11T16:16:54.691Z,97864.41
2022-09-11T16:19:28.308Z,97866.53
2022-09-11T16:21:57.789Z,97865.38
2022-09-11T16:24:27.842Z,97868.31
2022-09-11T16:26:56.680Z,97868.97
2022-09-11T16:29:44.079Z,97868.97
2022-09-11T16:32:28.634Z,97873.44
2022-09-11T16:34:59.820Z,97871.66
2022-09-11T16:37:28.354Z,97874.00
2022-09-11T16:39:56.982Z,97876.81
2022-09-11T16:42:26.670Z,97869.88
2022-09-11T16:44:55.369Z,97879.41
2022-09-11T16:47:24.877Z,97884.34
2022-09-11T16:50:09.154Z,97887.16
2022-09-11T16:52:39.144Z,97870.91
2022-09-11T16:55:10.781Z,97880.66
2022-09-11T16:57:39.824Z,97878.56
2022-09-11T17:00:09.893Z,97891.31
2022-09-11T17:02:38.833Z,97887.31
2022-09-11T17:05:08.630Z,97884.44
2022-09-11T17:07:41.674Z,97889.94
2022-09-11T17:10:10.999Z,97893.53
2022-09-11T17:12:39.195Z,97895.56
2022-09-11T17:15:08.780Z,97901.59
2022-09-11T17:17:38.065Z,97903.16
2022-09-11T17:20:09.550Z,97901.50
2022-09-11T17:22:39.490Z,97910.78
2022-09-11T17:25:08.268Z,97914.31
2022-09-11T17:27:37.224Z,97923.28
2022-09-11T17:30:06.009Z,97920.81
2022-09-11T17:32:34.428Z,97916.00
2022-09-11T17:35:02.794Z,97928.31
2022-09-11T17:37:33.088Z,97927.59
2022-09-11T17:40:03.273Z,97940.47
2022-09-11T17:42:32.422Z,97937.56
2022-09-11T17:45:01.570Z,97940.91
2022-09-11T17:47:31.810Z,97939.53
2022-09-11T17:50:01.570Z,97941.63
2022-09-11T17:52:30.030Z,97944.53
2022-09-11T17:54:58.402Z,97946.06
2022-09-11T17:57:28.433Z,97944.56
2022-09-11T17:59:56.716Z,97945.19
2022-09-11T18:02:25.206Z,97943.03
2022-09-11T18:04:54.309Z,97955.06
2022-09-11T18:07:22.419Z,97946.53
2022-09-11T18:09:55.568Z,97950.63
2022-09-11T18:12:25.851Z,97949.25
2022-09-11T18:14:57.135Z,97949.59
2022-09-11T18:17:25.452Z,97951.59
2022-09-11T18:19:53.697Z,97953.66
2022-09-11T18:22:22.547Z,97965.13
2022-09-11T18:24:51.616Z,97961.84
2022-09-11T18:27:20.018Z,97959.16
2022-09-11T18:29:50.100Z,97966.38
2022-09-11T18:32:20.192Z,97957.13
2022-09-11T18:34:49.785Z,97966.00
2022-09-11T18:37:18.453Z,97968.16
2022-09-11T18:39:48.427Z,97960.91
2022-09-11T18:42:18.132Z,97958.56
2022-09-11T18:44:46.364Z,97963.81
2022-09-11T18:47:14.706Z,97969.59
2022-09-11T18:49:46.160Z,97967.78
2022-09-11T18:52:14.727Z,97969.72
2022-09-11T18:54:43.093Z,97967.19
2022-09-11T18:57:11.328Z,97974.56
2022-09-11T18:59:39.593Z,97978.38
2022-09-11T19:02:08.390Z,97969.13
2022-09-11T19:04:36.703Z,97979.28
2022-09-11T19:07:06.461Z,97979.28
2022-09-11T19:09:35.469Z,97980.34
2022-09-11T19:12:05.471Z,97978.31
2022-09-11T19:14:36.082Z,97972.63
2022-09-11T19:17:04.450Z,97995.50
2022-09-11T19:19:32.832Z,97988.78
2022-09-11T19:22:01.122Z,97988.69
2022-09-11T19:24:31.330Z,97989.00
2022-09-11T19:27:00.329Z,97984.47
2022-09-11T19:29:28.602Z,97988.41
2022-09-11T19:31:57.028Z,97991.03
2022-09-11T19:34:25.094Z,97989.06
2022-09-11T19:36:53.993Z,97999.38
2022-09-11T19:39:22.597Z,97992.91
2022-09-11T19:41:52.189Z,97995.34
2022-09-11T19:44:21.153Z,97998.47
2022-09-11T19:46:53.550Z,98000.88
2022-09-11T19:49:22.030Z,97997.25
2022-09-11T19:51:53.015Z,97996.41
2022-09-11T19:54:22.477Z,98000.19
2022-09-11T19:56:52.748Z,98000.97
2022-09-11T19:59:21.246Z,98000.28
2022-09-11T20:01:49.443Z,98011.75
2022-09-11T20:04:19.208Z,98005.91
2022-09-11T20:09:31.850Z,98022.31
2022-09-11T20:12:02.532Z,98018.28
2022-09-11T20:14:31.517Z,98022.28
2022-09-11T20:17:01.202Z,98020.41
2022-09-11T20:19:30.085Z,98020.53
2022-09-11T20:22:00.485Z,98026.34
2022-09-11T20:24:29.085Z,98019.53
2022-09-11T20:26:57.868Z,98023.03
2022-09-11T20:29:28.065Z,98024.22
2022-09-11T20:31:56.463Z,98024.91
2022-09-11T20:34:28.093Z,98021.25
2022-09-11T20:36:57.089Z,98027.03
2022-09-11T20:39:25.543Z,98022.44
2022-09-11T20:41:53.652Z,98024.53
2022-09-11T20:44:21.762Z,98026.25
2022-09-11T20:46:51.535Z,98026.13
2022-09-11T20:49:19.823Z,98016.44
2022-09-11T20:51:48.216Z,98029.84
2022-09-11T20:54:16.954Z,98017.47
2022-09-11T20:56:46.449Z,98022.41
2022-09-11T20:59:14.818Z,98027.94
2022-09-11T21:01:43.413Z,98023.66
2022-09-11T21:04:13.343Z,98018.03
2022-09-11T21:06:41.778Z,98015.94
2022-09-11T21:09:11.976Z,98011.69
2022-09-11T21:11:41.221Z,98023.69
2022-09-11T21:14:09.516Z,98015.72
2022-09-11T21:16:38.215Z,98014.34
2022-09-11T21:19:07.093Z,98020.94
2022-09-11T21:21:38.002Z,98016.72
2022-09-11T21:24:10.222Z,98011.28
2022-09-11T21:26:38.564Z,98021.28
2022-09-11T21:29:08.493Z,98018.91
2022-09-11T21:31:41.286Z,98010.59
2022-09-11T21:34:10.170Z,98023.69
2022-09-11T21:36:39.912Z,98022.63
2022-09-11T21:39:07.992Z,98019.31
2022-09-11T21:41:36.507Z,98026.69
2022-09-11T21:44:04.948Z,98022.09
2022-09-11T21:46:33.104Z,98023.13
2022-09-11T21:49:01.827Z,98024.13
2022-09-11T21:51:30.115Z,98030.97
2022-09-11T21:54:01.733Z,98023.13
2022-09-11T21:56:33.165Z,98017.91
2022-09-11T21:59:01.899Z,98030.13
2022-09-11T22:01:31.814Z,98024.94
2022-09-11T22:04:01.224Z,98022.75
2022-09-11T22:06:30.071Z,98027.94
2022-09-11T22:09:00.557Z,98025.31
2022-09-11T22:11:29.096Z,98024.94
2022-09-11T22:13:57.184Z,98016.97
2022-09-11T22:16:25.427Z,98030.56
2022-09-11T22:18:55.707Z,98026.44
2022-09-11T22:21:24.119Z,98035.72
2022-09-11T22:23:52.813Z,98036.06
2022-09-11T22:26:23.929Z,98036.34
2022-09-11T22:28:52.886Z,98042.66
2022-09-11T22:31:23.814Z,98036.94
2022-09-11T22:33:52.276Z,98036.41
2022-09-11T22:36:24.402Z,98046.88
2022-09-11T22:38:53.370Z,98049.13
2022-09-11T22:41:23.256Z,98044.56
2022-09-11T22:43:51.515Z,98048.56
2022-09-11T22:46:21.285Z,98040.47
2022-09-11T22:48:49.774Z,98043.13
2022-09-11T22:51:17.878Z,98045.88
2022-09-11T22:53:46.966Z,98047.19
2022-09-11T22:56:15.321Z,98044.16
2022-09-11T22:58:45.049Z,98045.25
2022-09-11T23:01:21.068Z,98045.25
2022-09-11T23:03:50.954Z,98046.81
2022-09-11T23:06:38.236Z,98042.38
2022-09-11T23:09:07.738Z,98050.81
2022-09-11T23:11:36.180Z,98033.19
2022-09-11T23:14:09.335Z,98046.94
2022-09-11T23:16:41.947Z,98038.50
2022-09-11T23:19:13.170Z,98044.06
2022-09-11T23:21:41.613Z,98044.03
2022-09-11T23:24:13.366Z,98042.44
2022-09-11T23:26:41.997Z,98041.31
2022-09-11T23:29:12.390Z,98047.06
2022-09-11T23:31:40.526Z,98039.56
2022-09-11T23:34:10.059Z,98051.56
2022-09-11T23:36:38.451Z,98047.28
2022-09-11T23:39:06.619Z,98042.41
2022-09-11T23:41:34.831Z,98041.94
2022-09-11T23:44:03.642Z,98045.38
2022-09-11T23:46:33.752Z,98036.84
2022-09-11T23:49:01.880Z,98041.59
2022-09-11T23:51:30.352Z,98038.16
2022-09-11T23:53:58.431Z,98035.09
2022-09-11T23:56:26.616Z,98040.78
2022-09-11T23:58:54.940Z,98045.88
